Time;durP1;ratioP1;P1;durP2;ratioP2;P2;SDS_P1;SDS_P2;PMS_P1;PMS_P2;Temp;Humidity;BMP_temperature;BMP_pressure;BME280_temperature;BME280_humidity;BME280_pressure;Samples;Min_cycle;Max_cycle;Signal;HPM_P1;HPM_P2
2023/10/13 00:01:34;;;;;;;0.00;0.00;;;18.30;99.90;;;;;;5094282;28;20181;-61
2023/10/13 00:04:01;;;;;;;0.00;0.00;;;18.30;99.90;;;;;;5094360;28;20203;-61
2023/10/13 00:06:27;;;;;;;0.00;0.00;;;18.30;99.90;;;;;;5094335;28;20188;-61
2023/10/13 00:08:52;;;;;;;0.00;0.00;;;18.20;99.90;;;;;;5094409;28;20297;-60
2023/10/13 00:11:21;;;;;;;0.00;0.00;;;18.20;99.90;;;;;;5093733;28;20184;-60
2023/10/13 00:13:55;;;;;;;0.05;0.05;;;18.20;99.90;;;;;;5094360;28;20658;-60
2023/10/13 00:16:22;;;;;;;0.10;0.10;;;18.10;99.90;;;;;;5094149;28;20187;-60
2023/10/13 00:18:50;;;;;;;0.00;0.00;;;18.10;99.90;;;;;;5093870;28;20549;-60
2023/10/13 00:21:19;;;;;;;0.00;0.00;;;18.00;99.90;;;;;;5093799;28;20241;-60
2023/10/13 00:23:54;;;;;;;0.00;0.00;;;18.00;99.90;;;;;;5083343;28;20536;-60
2023/10/13 00:26:28;;;;;;;0.00;0.00;;;17.90;99.90;;;;;;5094103;28;20187;-60
2023/10/13 00:31:36;;;;;;;0.00;0.00;;;17.80;99.90;;;;;;5093433;28;20251;-60
2023/10/13 00:36:36;;;;;;;0.00;0.00;;;17.80;99.90;;;;;;5085058;28;20176;-60
2023/10/13 00:39:06;;;;;;;0.00;0.00;;;17.70;99.90;;;;;;5092274;28;20183;-60
2023/10/13 00:41:57;;;;;;;0.00;0.00;;;17.60;99.90;;;;;;5091934;28;20215;-59
2023/10/13 00:45:01;;;;;;;0.10;0.10;;;17.60;99.90;;;;;;5092927;28;20336;-60
2023/10/13 00:47:16;;;;;;;0.00;0.00;;;17.50;99.90;;;;;;5080666;28;20247;-60
2023/10/13 00:49:46;;;;;;;0.00;0.00;;;17.40;99.90;;;;;;5092764;28;21390;-60
2023/10/13 00:52:12;;;;;;;0.00;0.00;;;17.40;99.90;;;;;;5093722;28;20207;-60
2023/10/13 00:54:38;;;;;;;0.03;0.03;;;17.30;99.90;;;;;;5093626;28;20232;-59
2023/10/13 00:57:12;;;;;;;0.22;0.20;;;17.30;99.90;;;;;;5093770;28;20631;-59
2023/10/13 00:59:37;;;;;;;0.03;0.03;;;17.30;99.90;;;;;;5093405;28;20172;-59
2023/10/13 01:02:37;;;;;;;0.00;0.00;;;17.20;99.90;;;;;;5093406;28;20183;-60
2023/10/13 01:04:49;;;;;;;0.10;0.10;;;17.20;99.90;;;;;;5092498;28;20662;-59
2023/10/13 01:07:16;;;;;;;0.03;0.03;;;17.10;99.90;;;;;;5093516;28;20649;-60
2023/10/13 01:09:42;;;;;;;0.00;0.00;;;17.00;99.90;;;;;;5092737;28;20200;-60
2023/10/13 01:12:08;;;;;;;0.00;0.00;;;16.90;99.90;;;;;;5091949;28;20204;-60
2023/10/13 01:14:35;;;;;;;0.10;0.10;;;16.90;99.90;;;;;;5093130;28;20195;-61
2023/10/13 01:17:01;;;;;;;0.00;0.00;;;16.80;99.90;;;;;;5093091;28;20168;-61
2023/10/13 01:19:27;;;;;;;0.03;0.03;;;16.80;99.90;;;;;;5092808;28;20187;-61
2023/10/13 01:22:04;;;;;;;0.00;0.00;;;16.70;99.90;;;;;;5091636;28;20164;-60
2023/10/13 01:24:35;;;;;;;0.00;0.00;;;16.70;99.90;;;;;;5081852;28;20183;-61
2023/10/13 01:27:19;;;;;;;0.00;0.00;;;16.60;99.90;;;;;;5092804;28;20270;-61
2023/10/13 01:29:49;;;;;;;0.00;0.00;;;16.60;99.90;;;;;;5092806;28;20290;-61
2023/10/13 01:32:19;;;;;;;0.00;0.00;;;16.50;99.90;;;;;;5092343;28;20223;-60
2023/10/13 01:34:46;;;;;;;0.00;0.00;;;16.50;99.90;;;;;;5092355;28;20530;-60
2023/10/13 01:37:12;;;;;;;0.00;0.00;;;16.50;99.90;;;;;;5092740;28;20321;-61
2023/10/13 01:39:38;;;;;;;0.25;0.25;;;16.40;99.90;;;;;;5092157;28;20267;-60
2023/10/13 01:42:03;;;;;;;0.00;0.00;;;16.40;99.90;;;;;;5092381;28;20168;-61
2023/10/13 01:44:30;;;;;;;0.32;0.32;;;16.30;99.90;;;;;;5092570;28;20263;-61
2023/10/13 01:46:59;;;;;;;0.10;0.10;;;16.20;99.90;;;;;;5092405;28;20608;-60
2023/10/13 01:49:25;;;;;;;0.00;0.00;;;16.20;99.90;;;;;;5088027;28;20255;-61
2023/10/13 01:51:50;;;;;;;0.00;0.00;;;16.10;99.90;;;;;;5092048;28;20227;-61
2023/10/13 01:54:16;;;;;;;0.10;0.10;;;16.10;99.90;;;;;;5092443;28;20532;-61
2023/10/13 01:56:45;;;;;;;0.10;0.10;;;16.00;99.90;;;;;;5092043;28;20180;-61
2023/10/13 01:59:11;;;;;;;0.05;0.05;;;16.00;99.90;;;;;;5092229;28;20554;-61
2023/10/13 02:01:38;;;;;;;0.10;0.10;;;15.90;99.90;;;;;;5090816;28;20180;-61
2023/10/13 02:04:04;;;;;;;0.00;0.00;;;15.80;99.90;;;;;;5092110;28;20172;-61
2023/10/13 02:06:36;;;;;;;0.00;0.00;;;15.80;99.90;;;;;;5091792;28;20210;-61
2023/10/13 02:09:12;;;;;;;0.00;0.00;;;15.80;99.90;;;;;;5092308;28;20183;-60
2023/10/13 02:11:43;;;;;;;0.00;0.00;;;15.70;99.90;;;;;;5091746;28;20697;-60
2023/10/13 02:14:11;;;;;;;0.00;0.00;;;15.60;99.90;;;;;;5091980;28;20528;-61
2023/10/13 02:16:36;;;;;;;0.10;0.10;;;15.60;99.90;;;;;;5090853;28;20184;-60
2023/10/13 02:19:05;;;;;;;0.08;0.08;;;15.60;99.90;;;;;;5092028;28;20244;-60
2023/10/13 02:21:39;;;;;;;0.00;0.00;;;15.50;99.90;;;;;;5091653;28;20180;-60
2023/10/13 02:24:17;;;;;;;0.30;0.30;;;15.50;99.90;;;;;;5079313;28;20229;-60
2023/10/13 02:26:44;;;;;;;0.40;0.40;;;15.40;99.90;;;;;;5092109;28;20237;-60
2023/10/13 02:29:13;;;;;;;0.10;0.10;;;15.40;99.90;;;;;;5091661;28;20595;-60
2023/10/13 02:31:41;;;;;;;0.00;0.00;;;15.40;99.90;;;;;;5091312;28;20683;-60
2023/10/13 02:34:07;;;;;;;0.25;0.25;;;15.30;99.90;;;;;;5091480;28;20215;-61
2023/10/13 02:36:49;;;;;;;0.00;0.00;;;15.30;99.90;;;;;;5091566;28;20619;-60
2023/10/13 02:39:16;;;;;;;0.00;0.00;;;15.30;99.90;;;;;;5091350;28;20180;-60
2023/10/13 02:41:48;;;;;;;0.00;0.00;;;15.20;99.90;;;;;;5088698;28;20644;-60
2023/10/13 02:44:27;;;;;;;0.00;0.00;;;15.20;99.90;;;;;;5091319;28;20254;-60
2023/10/13 02:46:55;;;;;;;0.00;0.00;;;15.20;99.90;;;;;;5091478;28;20191;-60
2023/10/13 02:49:31;;;;;;;0.80;0.43;;;15.10;99.90;;;;;;5091274;28;20188;-60
2023/10/13 02:51:58;;;;;;;0.08;0.08;;;15.00;99.90;;;;;;5090128;28;20211;-60
2023/10/13 02:54:30;;;;;;;0.00;0.00;;;15.00;99.90;;;;;;5091415;28;20267;-61
2023/10/13 02:56:59;;;;;;;0.00;0.00;;;15.00;99.90;;;;;;5091510;28;20188;-60
2023/10/13 02:59:34;;;;;;;0.10;0.10;;;14.90;99.90;;;;;;5091452;28;20190;-60
2023/10/13 03:02:07;;;;;;;0.00;0.00;;;15.00;99.90;;;;;;5091188;28;20541;-60
2023/10/13 03:04:32;;;;;;;0.00;0.00;;;14.90;99.90;;;;;;5091077;28;20533;-60
2023/10/13 03:06:59;;;;;;;0.00;0.00;;;14.90;99.90;;;;;;5091422;28;20180;-60
2023/10/13 03:09:25;;;;;;;0.13;0.13;;;14.90;99.90;;;;;;5091160;28;20184;-61
2023/10/13 03:11:50;;;;;;;0.17;0.17;;;14.80;99.90;;;;;;5090704;28;20204;-60
2023/10/13 03:14:30;;;;;;;0.00;0.00;;;14.80;99.90;;;;;;5090999;28;20180;-60
2023/10/13 03:19:32;;;;;;;0.00;0.00;;;14.80;99.90;;;;;;5091228;28;20183;-60
2023/10/13 03:22:07;;;;;;;0.00;0.00;;;14.80;99.90;;;;;;5090781;28;20259;-60
2023/10/13 03:24:35;;;;;;;0.00;0.00;;;14.70;99.90;;;;;;5077087;28;20634;-60
2023/10/13 03:27:08;;;;;;;0.20;0.20;;;14.70;99.90;;;;;;5090997;28;20238;-59
2023/10/13 03:29:42;;;;;;;0.00;0.00;;;14.70;99.90;;;;;;5089137;28;20798;-59
2023/10/13 03:32:11;;;;;;;0.00;0.00;;;14.70;99.90;;;;;;5089459;28;20323;-60
2023/10/13 03:34:41;;;;;;;0.00;0.00;;;14.70;99.90;;;;;;5090288;28;20183;-61
2023/10/13 03:37:17;;;;;;;0.00;0.00;;;14.60;99.90;;;;;;5090401;28;20172;-62
2023/10/13 03:39:45;;;;;;;0.40;0.35;;;14.60;99.90;;;;;;5090072;28;20638;-61
2023/10/13 03:42:18;;;;;;;0.10;0.10;;;14.60;99.90;;;;;;5090505;28;20511;-62
2023/10/13 03:44:46;;;;;;;0.55;0.55;;;14.60;99.90;;;;;;5091071;28;20237;-62
2023/10/13 03:47:18;;;;;;;0.00;0.00;;;14.60;99.90;;;;;;5090914;28;20619;-63
2023/10/13 03:49:45;;;;;;;0.00;0.00;;;14.50;99.90;;;;;;5069686;28;20243;-61
2023/10/13 03:52:13;;;;;;;0.00;0.00;;;14.50;99.90;;;;;;5073120;28;20244;-62
2023/10/13 03:54:40;;;;;;;0.00;0.00;;;14.50;99.90;;;;;;5089910;28;20167;-63
2023/10/13 03:57:11;;;;;;;0.00;0.00;;;14.40;99.90;;;;;;5091003;28;20531;-59
2023/10/13 03:59:38;;;;;;;0.00;0.00;;;14.40;99.90;;;;;;5090896;28;20264;-62
2023/10/13 04:02:11;;;;;;;0.10;0.10;;;14.30;99.90;;;;;;5090267;28;20184;-61
2023/10/13 04:04:53;;;;;;;0.10;0.10;;;14.20;99.90;;;;;;5090390;28;20168;-61
2023/10/13 04:14:19;;;;;;;0.00;0.00;;;14.20;99.90;;;;;;5090672;28;20227;-63
2023/10/13 04:18:34;;;;;;;0.00;0.00;;;14.20;99.90;;;;;;5091003;28;20187;-62
2023/10/13 04:21:18;;;;;;;0.28;0.28;;;14.20;99.90;;;;;;5090621;28;20572;-62
2023/10/13 04:26:37;;;;;;;0.00;0.00;;;14.20;99.90;;;;;;5090888;28;20249;-63
2023/10/13 04:29:10;;;;;;;0.00;0.00;;;14.10;99.90;;;;;;5090379;28;20172;-63
2023/10/13 04:31:59;;;;;;;0.00;0.00;;;14.10;99.90;;;;;;5089859;28;20230;-63
2023/10/13 04:34:34;;;;;;;0.00;0.00;;;14.10;99.90;;;;;;5090407;28;20593;-63
2023/10/13 04:37:23;;;;;;;0.00;0.00;;;14.10;99.90;;;;;;5089555;28;20172;-63
2023/10/13 04:39:45;;;;;;;0.00;0.00;;;14.10;99.90;;;;;;5091716;28;20184;-63
2023/10/13 04:42:26;;;;;;;0.00;0.00;;;14.10;99.90;;;;;;5093745;28;20825;-62
2023/10/13 04:44:56;;;;;;;0.00;0.00;;;14.10;99.90;;;;;;5093843;28;20180;-63
2023/10/13 04:47:22;;;;;;;0.03;0.03;;;14.00;99.90;;;;;;5093484;28;20191;-63
2023/10/13 04:52:26;;;;;;;0.10;0.10;;;14.00;99.90;;;;;;5093955;28;20195;-63
2023/10/13 04:54:55;;;;;;;0.13;0.13;;;14.00;99.90;;;;;;5094059;28;20184;-63
2023/10/13 04:57:34;;;;;;;0.00;0.00;;;14.00;99.90;;;;;;5093943;28;20161;-62
2023/10/13 05:46:48;;;;;;;0.00;0.00;;;13.70;99.90;;;;;;5092961;28;20666;-62
2023/10/13 06:29:56;;;;;;;0.00;0.00;;;14.00;99.90;;;;;;5092327;28;20535;-62
2023/10/13 06:32:25;;;;;;;0.00;0.00;;;14.00;99.90;;;;;;5091855;28;20232;-63
2023/10/13 06:34:58;;;;;;;0.00;0.00;;;14.10;99.90;;;;;;5091998;28;20179;-63
2023/10/13 06:37:30;;;;;;;0.10;0.10;;;14.10;99.90;;;;;;5092071;28;20185;-63
2023/10/13 06:39:56;;;;;;;0.00;0.00;;;14.20;99.90;;;;;;5091949;28;20175;-63
2023/10/13 06:42:27;;;;;;;0.05;0.05;;;14.30;99.90;;;;;;5090674;28;20182;-63
2023/10/13 06:44:54;;;;;;;0.00;0.00;;;14.40;99.90;;;;;;5087226;28;20181;-63
2023/10/13 06:47:20;;;;;;;0.00;0.00;;;14.40;99.90;;;;;;5071577;28;20326;-63
2023/10/13 06:49:48;;;;;;;0.00;0.00;;;14.50;99.90;;;;;;5071560;28;20183;-63
2023/10/13 06:52:14;;;;;;;0.10;0.10;;;14.50;99.90;;;;;;5071463;28;20296;-63
2023/10/13 06:54:41;;;;;;;0.00;0.00;;;14.70;99.90;;;;;;5087049;28;20267;-63
2023/10/13 06:57:10;;;;;;;0.10;0.10;;;14.90;99.90;;;;;;5071492;28;20165;-63
2023/10/13 06:59:39;;;;;;;0.00;0.00;;;15.20;99.90;;;;;;5071337;28;20207;-63
2023/10/13 07:02:06;;;;;;;0.40;0.40;;;15.50;99.90;;;;;;5071068;28;20531;-63
2023/10/13 07:04:32;;;;;;;0.00;0.00;;;15.80;99.90;;;;;;5071387;28;20196;-63
2023/10/13 07:07:00;;;;;;;0.00;0.00;;;16.10;99.90;;;;;;5080156;28;20235;-63
2023/10/13 07:12:03;;;;;;;0.00;0.00;;;16.80;99.90;;;;;;5091594;28;20195;-63
2023/10/13 07:14:29;;;;;;;0.00;0.00;;;17.30;99.90;;;;;;5091417;28;20176;-63
2023/10/13 07:17:00;;;;;;;0.10;0.10;;;17.70;99.90;;;;;;5091551;28;20191;-63
2023/10/13 07:19:29;;;;;;;0.00;0.00;;;18.00;99.90;;;;;;5091460;28;20247;-63
2023/10/13 07:21:58;;;;;;;0.00;0.00;;;18.40;99.90;;;;;;5091138;28;20180;-63
2023/10/13 07:24:33;;;;;;;0.00;0.00;;;18.80;99.90;;;;;;5091406;28;20168;-63
2023/10/13 07:27:04;;;;;;;0.00;0.00;;;19.30;99.90;;;;;;5091349;28;20231;-63
2023/10/13 07:29:30;;;;;;;0.00;0.00;;;19.80;99.90;;;;;;5091398;28;20168;-63
2023/10/13 07:31:56;;;;;;;0.00;0.00;;;20.30;99.90;;;;;;5090975;28;20235;-63
2023/10/13 07:34:26;;;;;;;0.00;0.00;;;20.80;99.90;;;;;;5091271;28;20195;-63
2023/10/13 07:36:53;;;;;;;0.00;0.00;;;21.20;99.90;;;;;;5091288;28;20175;-63
2023/10/13 07:39:23;;;;;;;0.00;0.00;;;21.60;99.90;;;;;;5091199;28;20245;-63
2023/10/13 07:41:53;;;;;;;0.75;0.75;;;22.00;99.90;;;;;;5091167;28;20171;-63
2023/10/13 07:44:24;;;;;;;0.00;0.00;;;22.40;99.60;;;;;;5090965;28;20638;-63
2023/10/13 07:46:58;;;;;;;0.00;0.00;;;22.80;99.00;;;;;;5091146;28;20198;-63
2023/10/13 07:49:30;;;;;;;0.00;0.00;;;23.20;98.10;;;;;;5091172;28;20612;-63
2023/10/13 07:54:49;;;;;;;0.00;0.00;;;23.90;96.90;;;;;;5091306;28;20182;-63
2023/10/13 07:57:15;;;;;;;0.00;0.00;;;24.30;95.90;;;;;;5091121;28;20176;-63
2023/10/13 07:59:52;;;;;;;0.00;0.00;;;24.60;94.80;;;;;;5090987;28;20654;-63
2023/10/13 08:02:48;;;;;;;0.00;0.00;;;24.80;94.40;;;;;;5090993;28;20230;-63
2023/10/13 08:05:23;;;;;;;0.00;0.00;;;25.10;93.80;;;;;;5090997;28;20306;-63
2023/10/13 08:07:50;;;;;;;0.00;0.00;;;25.30;93.00;;;;;;5090827;28;20176;-63
2023/10/13 08:10:16;;;;;;;0.00;0.00;;;25.30;92.70;;;;;;5090908;28;20176;-63
2023/10/13 08:12:44;;;;;;;0.00;0.00;;;25.50;92.60;;;;;;5090832;28;20215;-64
2023/10/13 08:15:21;;;;;;;0.63;0.55;;;25.50;92.00;;;;;;5092863;28;20176;-64
2023/10/13 08:17:46;;;;;;;0.00;0.00;;;25.70;91.30;;;;;;5094852;28;20184;-64
2023/10/13 08:20:12;;;;;;;0.00;0.00;;;26.00;91.20;;;;;;5094778;28;20176;-63
2023/10/13 08:22:38;;;;;;;0.40;0.40;;;26.20;90.80;;;;;;5094559;28;20168;-63
2023/10/13 08:27:49;;;;;;;0.00;0.00;;;26.60;90.40;;;;;;5094579;28;20176;-63
2023/10/13 08:30:30;;;;;;;0.00;0.00;;;26.90;88.80;;;;;;5094532;28;20712;-63
2023/10/13 08:33:16;;;;;;;0.00;0.00;;;27.10;87.90;;;;;;5094272;28;20228;-63
2023/10/13 08:35:54;;;;;;;0.00;0.00;;;27.20;86.70;;;;;;5094501;28;20546;-63
2023/10/13 08:38:19;;;;;;;0.00;0.00;;;27.30;85.90;;;;;;5094436;28;20179;-63
2023/10/13 08:41:28;;;;;;;0.00;0.00;;;27.30;83.80;;;;;;5094324;28;20182;-64
2023/10/13 08:43:45;;;;;;;0.00;0.00;;;27.30;83.60;;;;;;5094115;28;20704;-63
2023/10/13 08:46:24;;;;;;;0.00;0.00;;;27.10;84.40;;;;;;5094105;28;20176;-63
2023/10/13 08:48:52;;;;;;;0.13;0.13;;;27.00;84.90;;;;;;5094133;28;20263;-63
2023/10/13 08:51:43;;;;;;;0.15;0.15;;;27.10;83.30;;;;;;5093964;28;20205;-63
2023/10/13 08:54:08;;;;;;;0.00;0.00;;;27.20;80.00;;;;;;5094073;28;20193;-63
2023/10/13 08:56:35;;;;;;;0.00;0.00;;;27.50;82.00;;;;;;5094043;28;20639;-64
2023/10/13 09:04:22;;;;;;;0.00;0.00;;;27.80;79.80;;;;;;5094058;28;20168;-64
2023/10/13 09:15:34;;;;;;;0.00;0.00;;;27.20;79.30;;;;;;5093663;28;20176;-63
2023/10/13 09:25:35;;;;;;;0.00;0.00;;;27.30;72.70;;;;;;5093193;28;20168;-64
2023/10/13 09:28:14;;;;;;;0.00;0.00;;;27.60;72.90;;;;;;5093467;28;20628;-63
2023/10/13 09:30:52;;;;;;;0.00;0.00;;;27.70;72.80;;;;;;5093378;28;20194;-63
2023/10/13 09:33:32;;;;;;;0.00;0.00;;;27.70;71.50;;;;;;5093020;28;20255;-64
2023/10/13 09:36:06;;;;;;;0.00;0.00;;;27.70;73.30;;;;;;5093277;28;20172;-64
2023/10/13 09:38:36;;;;;;;0.00;0.00;;;27.70;69.90;;;;;;5093328;28;20179;-64
2023/10/13 09:41:26;;;;;;;0.10;0.10;;;27.80;71.30;;;;;;5093226;28;20224;-64
2023/10/13 09:43:52;;;;;;;0.00;0.00;;;28.10;70.00;;;;;;5093063;28;20627;-64
2023/10/13 09:46:23;;;;;;;0.00;0.00;;;28.30;70.10;;;;;;5092962;28;20192;-63
2023/10/13 09:49:04;;;;;;;0.10;0.10;;;28.50;68.90;;;;;;5092901;28;20631;-63
2023/10/13 09:51:31;;;;;;;0.00;0.00;;;28.50;69.00;;;;;;5093091;28;20180;-63
2023/10/13 09:54:16;;;;;;;0.00;0.00;;;28.60;66.20;;;;;;5092760;28;20210;-63
2023/10/13 09:57:01;;;;;;;0.00;0.00;;;28.70;67.40;;;;;;5091834;28;20226;-63
2023/10/13 09:59:43;;;;;;;0.00;0.00;;;29.00;71.30;;;;;;5092801;28;20669;-63
2023/10/13 10:02:09;;;;;;;0.00;0.00;;;28.90;71.20;;;;;;5092762;28;20651;-63
2023/10/13 10:04:51;;;;;;;0.00;0.00;;;29.00;69.40;;;;;;5092620;28;20176;-63
2023/10/13 10:07:28;;;;;;;0.00;0.00;;;29.00;70.20;;;;;;5092397;28;20646;-63
2023/10/13 10:09:58;;;;;;;0.00;0.00;;;29.20;67.90;;;;;;5092678;28;20622;-63
2023/10/13 10:12:48;;;;;;;0.00;0.00;;;29.20;66.80;;;;;;5092513;28;20761;-63
2023/10/13 10:15:33;;;;;;;0.00;0.00;;;29.30;65.80;;;;;;5092443;28;20230;-63
2023/10/13 10:18:00;;;;;;;0.00;0.00;;;29.30;66.90;;;;;;5092372;28;20167;-63
2023/10/13 10:20:44;;;;;;;0.00;0.00;;;29.30;66.50;;;;;;5092490;28;20176;-63
2023/10/13 10:23:21;;;;;;;0.00;0.00;;;29.30;66.10;;;;;;5092465;28;20196;-63
2023/10/13 10:25:47;;;;;;;0.00;0.00;;;29.30;65.00;;;;;;5092570;28;20172;-63
2023/10/13 10:28:15;;;;;;;0.55;0.55;;;29.40;64.40;;;;;;5092425;28;20174;-63
2023/10/13 10:30:42;;;;;;;0.00;0.00;;;29.40;66.10;;;;;;5092028;28;20183;-63
2023/10/13 10:33:12;;;;;;;0.00;0.00;;;29.50;65.30;;;;;;5092006;28;20310;-63
2023/10/13 10:35:42;;;;;;;0.00;0.00;;;29.60;64.40;;;;;;5092046;28;20271;-63
2023/10/13 10:38:23;;;;;;;0.00;0.00;;;29.70;64.10;;;;;;5091561;28;20222;-63
2023/10/13 10:40:59;;;;;;;0.00;0.00;;;29.70;64.90;;;;;;5092024;28;20536;-63
2023/10/13 10:43:41;;;;;;;0.00;0.00;;;29.70;63.50;;;;;;5091975;28;20172;-63
2023/10/13 10:46:18;;;;;;;0.08;0.08;;;29.60;62.60;;;;;;5091882;28;20183;-63
2023/10/13 10:48:44;;;;;;;0.00;0.00;;;29.60;63.30;;;;;;5091808;28;20229;-63
2023/10/13 10:51:15;;;;;;;0.00;0.00;;;29.60;62.90;;;;;;5091912;28;20176;-63
2023/10/13 10:53:44;;;;;;;0.15;0.15;;;29.60;63.50;;;;;;5091668;28;20223;-64
2023/10/13 10:56:20;;;;;;;0.00;0.00;;;29.40;61.70;;;;;;5091802;28;20168;-63
2023/10/13 10:58:47;;;;;;;0.00;0.00;;;29.40;62.20;;;;;;5091722;28;20180;-63
2023/10/13 11:01:22;;;;;;;0.00;0.00;;;29.30;62.20;;;;;;5091717;28;20168;-63
2023/10/13 11:03:57;;;;;;;0.00;0.00;;;29.20;60.60;;;;;;5091453;28;20172;-63
2023/10/13 11:06:24;;;;;;;0.00;0.00;;;29.20;60.00;;;;;;5091386;28;20184;-64
2023/10/13 11:09:00;;;;;;;0.00;0.00;;;29.30;60.70;;;;;;5091211;28;20172;-64
2023/10/13 11:11:34;;;;;;;0.00;0.00;;;29.40;60.40;;;;;;5091382;28;20176;-64
2023/10/13 11:14:17;;;;;;;0.70;0.70;;;29.60;60.20;;;;;;5091150;28;20204;-64
2023/10/13 11:16:51;;;;;;;0.00;0.00;;;29.80;60.60;;;;;;5091147;28;20168;-63
2023/10/13 11:19:33;;;;;;;0.00;0.00;;;29.80;58.90;;;;;;5091034;28;20180;-64
2023/10/13 11:22:29;;;;;;;0.00;0.00;;;29.90;60.20;;;;;;5089972;28;20168;-63
2023/10/13 11:24:59;;;;;;;0.00;0.00;;;30.00;58.70;;;;;;5091154;28;20184;-63
2023/10/13 11:27:43;;;;;;;0.00;0.00;;;29.80;57.30;;;;;;5091056;28;20582;-64
2023/10/13 11:30:14;;;;;;;0.00;0.00;;;29.80;55.90;;;;;;5091195;28;20168;-63
2023/10/13 11:32:42;;;;;;;0.00;0.00;;;29.60;55.30;;;;;;5090586;28;20219;-64
2023/10/13 11:35:20;;;;;;;0.00;0.00;;;29.70;55.50;;;;;;5091125;28;20204;-63
2023/10/13 11:37:55;;;;;;;0.00;0.00;;;29.60;53.60;;;;;;5090967;28;20251;-63
2023/10/13 11:40:43;;;;;;;0.00;0.00;;;29.60;53.80;;;;;;5090969;28;20258;-64
2023/10/13 11:43:13;;;;;;;0.00;0.00;;;29.40;52.80;;;;;;5090921;28;20179;-63
2023/10/13 11:45:52;;;;;;;0.00;0.00;;;29.50;53.30;;;;;;5090470;28;20555;-63
2023/10/13 11:48:23;;;;;;;0.00;0.00;;;29.40;53.10;;;;;;5091490;28;20264;-64
2023/10/13 11:50:49;;;;;;;0.00;0.00;;;29.40;52.30;;;;;;5094997;28;20703;-63
2023/10/13 11:53:14;;;;;;;0.13;0.13;;;29.40;52.60;;;;;;5094987;28;20322;-64
2023/10/13 11:55:40;;;;;;;0.00;0.00;;;29.30;52.00;;;;;;5094906;28;20180;-63
2023/10/13 11:58:05;;;;;;;0.00;0.00;;;29.30;52.70;;;;;;5094944;28;20283;-63
2023/10/13 12:06:22;;;;;;;0.00;0.00;;;29.40;51.70;;;;;;5094902;28;20191;-63
2023/10/13 12:08:52;;;;;;;0.00;0.00;;;29.40;51.70;;;;;;5082342;28;20177;-63
2023/10/13 12:11:30;;;;;;;0.00;0.00;;;29.40;50.60;;;;;;5074437;28;20207;-63
2023/10/13 12:13:56;;;;;;;0.00;0.00;;;29.50;51.80;;;;;;5080839;28;20238;-63
2023/10/13 12:16:22;;;;;;;0.00;0.00;;;29.50;50.50;;;;;;5094645;28;20210;-63
2023/10/13 12:18:53;;;;;;;0.25;0.20;;;29.60;51.00;;;;;;5094522;28;20187;-63
2023/10/13 12:21:22;;;;;;;0.00;0.00;;;29.50;49.40;;;;;;5094408;28;20601;-63
2023/10/13 12:23:47;;;;;;;0.00;0.00;;;29.50;49.50;;;;;;5094526;28;20172;-63
2023/10/13 12:26:19;;;;;;;0.43;0.20;;;29.40;49.70;;;;;;5094418;28;20692;-62
2023/10/13 12:28:51;;;;;;;2.63;1.55;;;29.40;49.90;;;;;;5094321;28;20176;-63
2023/10/13 12:31:26;;;;;;;0.00;0.00;;;29.30;50.00;;;;;;5094095;28;20215;-64
2023/10/13 12:33:52;;;;;;;0.00;0.00;;;29.30;50.80;;;;;;5094356;28;20232;-64
2023/10/13 12:52:16;;;;;;;0.00;0.00;;;28.40;49.90;;;;;;5094228;28;20225;-64
2023/10/13 12:57:23;;;;;;;0.00;0.00;;;28.40;51.20;;;;;;5093482;28;20160;-64
2023/10/13 12:59:53;;;;;;;0.00;0.00;;;28.40;51.30;;;;;;5092715;28;20270;-64
2023/10/13 13:02:20;;;;;;;0.00;0.00;;;28.40;51.50;;;;;;5091532;28;20176;-64
2023/10/13 13:04:50;;;;;;;0.00;0.00;;;28.50;50.70;;;;;;5077149;28;20175;-63
2023/10/13 13:07:16;;;;;;;0.00;0.00;;;28.70;51.00;;;;;;5092307;28;20245;-64
2023/10/13 13:09:42;;;;;;;0.00;0.00;;;28.90;51.10;;;;;;5093454;28;20176;-65
2023/10/13 13:12:12;;;;;;;0.00;0.00;;;29.20;50.50;;;;;;5092907;28;20229;-66
2023/10/13 13:14:40;;;;;;;0.00;0.00;;;29.20;48.40;;;;;;5092932;28;20686;-64
2023/10/13 13:17:06;;;;;;;0.00;0.00;;;29.10;47.20;;;;;;5093278;28;20289;-64
2023/10/13 13:19:38;;;;;;;0.20;0.20;;;29.00;46.80;;;;;;5093133;28;20190;-64
2023/10/13 13:22:13;;;;;;;0.00;0.00;;;29.00;47.60;;;;;;5093225;28;20209;-65
2023/10/13 13:24:46;;;;;;;0.00;0.00;;;29.20;47.80;;;;;;5092871;28;20178;-65
2023/10/13 13:27:23;;;;;;;0.00;0.00;;;29.40;47.90;;;;;;5073077;28;20210;-65
2023/10/13 13:29:49;;;;;;;0.10;0.10;;;29.40;46.20;;;;;;5083949;28;20580;-64
2023/10/13 13:32:28;;;;;;;0.10;0.10;;;29.40;46.80;;;;;;5091993;28;20232;-65
2023/10/13 13:34:57;;;;;;;0.00;0.00;;;29.50;46.70;;;;;;5092804;28;20263;-65
2023/10/13 13:37:22;;;;;;;0.00;0.00;;;29.50;47.30;;;;;;5093047;28;20173;-65
2023/10/13 13:39:48;;;;;;;0.00;0.00;;;29.60;47.60;;;;;;5091584;28;20187;-65
2023/10/13 13:42:17;;;;;;;0.00;0.00;;;29.50;46.60;;;;;;5092964;28;20248;-65
2023/10/13 13:44:46;;;;;;;0.00;0.00;;;29.30;46.80;;;;;;5092302;28;20168;-65
2023/10/13 13:47:14;;;;;;;0.00;0.00;;;29.10;46.00;;;;;;5092859;28;20254;-64
2023/10/13 13:49:46;;;;;;;0.17;0.17;;;28.90;46.80;;;;;;5092247;28;20196;-65
2023/10/13 13:52:17;;;;;;;0.10;0.10;;;28.80;47.10;;;;;;5092749;28;20291;-64
2023/10/13 13:54:43;;;;;;;0.00;0.00;;;28.70;47.30;;;;;;5092658;28;20219;-65
2023/10/13 13:57:09;;;;;;;0.10;0.10;;;28.70;47.30;;;;;;5092716;28;20652;-65
2023/10/13 13:59:36;;;;;;;0.00;0.00;;;28.60;46.90;;;;;;5092151;28;20711;-64
2023/10/13 14:02:06;;;;;;;0.00;0.00;;;28.50;46.60;;;;;;5092582;28;20168;-65
2023/10/13 14:04:32;;;;;;;0.00;0.00;;;28.60;46.10;;;;;;5092458;28;20191;-64
2023/10/13 14:06:58;;;;;;;0.00;0.00;;;28.50;46.30;;;;;;5092250;28;20172;-64
2023/10/13 14:09:35;;;;;;;0.00;0.00;;;28.60;46.30;;;;;;5091765;28;20176;-64
2023/10/13 14:14:55;;;;;;;0.00;0.00;;;28.40;46.00;;;;;;5092484;28;20182;-64
2023/10/13 14:17:28;;;;;;;0.00;0.00;;;28.40;46.90;;;;;;5091248;28;20222;-64
2023/10/13 14:19:57;;;;;;;0.00;0.00;;;28.40;47.40;;;;;;5092374;28;20598;-64
2023/10/13 14:22:24;;;;;;;0.00;0.00;;;28.40;47.00;;;;;;5092291;28;20664;-63
2023/10/13 14:24:54;;;;;;;0.13;0.13;;;28.30;46.70;;;;;;5092235;28;20265;-63
2023/10/13 14:27:23;;;;;;;0.00;0.00;;;28.20;46.50;;;;;;5092245;28;20657;-63
2023/10/13 14:29:52;;;;;;;0.38;0.38;;;28.10;47.00;;;;;;5092246;28;20202;-63
2023/10/13 14:32:19;;;;;;;0.00;0.00;;;28.10;47.50;;;;;;5091753;28;20702;-64
2023/10/13 14:34:48;;;;;;;0.30;0.30;;;28.10;47.20;;;;;;5092097;28;20195;-65
2023/10/13 14:37:14;;;;;;;0.00;0.00;;;28.10;47.20;;;;;;5091263;28;20505;-64
2023/10/13 14:39:42;;;;;;;0.00;0.00;;;28.10;47.20;;;;;;5090437;28;20252;-63
2023/10/13 14:42:08;;;;;;;0.00;0.00;;;28.00;45.80;;;;;;5091942;28;20168;-64
2023/10/13 14:44:34;;;;;;;0.00;0.00;;;28.00;45.90;;;;;;5091043;28;20172;-64
2023/10/13 14:47:01;;;;;;;0.00;0.00;;;27.90;46.00;;;;;;5091610;28;20230;-64
2023/10/13 14:49:27;;;;;;;0.00;0.00;;;28.00;46.70;;;;;;5091737;28;20263;-64
2023/10/13 14:51:55;;;;;;;0.00;0.00;;;27.90;47.20;;;;;;5091625;28;20995;-64
2023/10/13 14:54:32;;;;;;;0.00;0.00;;;27.90;46.70;;;;;;5090759;28;20187;-64
2023/10/13 14:57:04;;;;;;;0.00;0.00;;;27.90;47.20;;;;;;5090995;28;20211;-64
2023/10/13 14:59:38;;;;;;;0.00;0.00;;;27.80;47.10;;;;;;5090865;28;20214;-64
2023/10/13 15:02:03;;;;;;;0.00;0.00;;;27.80;47.20;;;;;;5090763;28;20179;-65
2023/10/13 15:04:32;;;;;;;0.00;0.00;;;27.70;46.50;;;;;;5090416;28;20572;-64
2023/10/13 15:07:01;;;;;;;0.00;0.00;;;27.60;46.50;;;;;;5090890;28;20176;-65
2023/10/13 15:09:27;;;;;;;0.00;0.00;;;27.60;46.70;;;;;;5090572;28;20194;-64
2023/10/13 15:11:53;;;;;;;0.00;0.00;;;27.60;46.80;;;;;;5091087;28;20643;-64
2023/10/13 15:14:20;;;;;;;0.00;0.00;;;27.50;47.00;;;;;;5090132;28;20188;-63
2023/10/13 15:16:46;;;;;;;0.00;0.00;;;27.50;47.00;;;;;;5076767;28;20191;-64
2023/10/13 15:19:12;;;;;;;0.00;0.00;;;27.50;47.20;;;;;;5090340;28;20716;-64
2023/10/13 15:21:39;;;;;;;0.00;0.00;;;27.40;47.10;;;;;;5089822;28;20218;-64
2023/10/13 15:24:21;;;;;;;0.22;0.22;;;27.40;47.70;;;;;;5090842;28;20187;-64
2023/10/13 15:26:48;;;;;;;0.00;0.00;;;27.30;48.00;;;;;;5091053;28;20297;-64
2023/10/13 15:29:17;;;;;;;0.00;0.00;;;27.20;47.20;;;;;;5091051;28;20625;-64
2023/10/13 15:32:04;;;;;;;0.05;0.05;;;27.20;47.50;;;;;;5090876;28;20252;-64
2023/10/13 15:34:32;;;;;;;0.00;0.00;;;27.10;47.90;;;;;;5090928;28;20611;-63
2023/10/13 15:36:58;;;;;;;0.00;0.00;;;27.00;47.90;;;;;;5089958;28;20259;-64
2023/10/13 15:39:28;;;;;;;0.00;0.00;;;26.90;47.90;;;;;;5089656;28;20233;-65
2023/10/13 15:41:57;;;;;;;0.00;0.00;;;26.80;47.60;;;;;;5091088;28;20211;-64
2023/10/13 15:44:24;;;;;;;0.00;0.00;;;26.70;47.70;;;;;;5091001;28;20180;-64
2023/10/13 15:46:54;;;;;;;0.00;0.00;;;26.60;47.30;;;;;;5090762;28;20647;-64
2023/10/13 15:49:19;;;;;;;0.00;0.00;;;26.60;47.60;;;;;;5090942;28;20176;-65
2023/10/13 15:51:45;;;;;;;0.00;0.00;;;26.50;47.50;;;;;;5090713;28;20198;-63
2023/10/13 15:54:17;;;;;;;0.00;0.00;;;26.40;47.80;;;;;;5089631;28;20239;-64